Time;durP1;ratioP1;P1;durP2;ratioP2;P2;SDS_P1;SDS_P2;PMS_P1;PMS_P2;Temp;Humidity;BMP_temperature;BMP_pressure;BME280_temperature;BME280_humidity;BME280_pressure;Samples;Min_cycle;Max_cycle;Signal;HPM_P1;HPM_P2
2022/08/14 00:00:57;;;;;;;12.90;11.50;;;;;;;21.68;100.00;100407.42;1763965;81;21138;-92
2022/08/14 00:03:30;;;;;;;12.07;10.32;;;;;;;21.64;100.00;100404.83;1764222;81;21080;-92
2022/08/14 00:06:02;;;;;;;13.80;11.05;;;;;;;21.60;100.00;100401.75;1759640;81;20997;-92
2022/08/14 00:08:31;;;;;;;14.65;11.20;;;;;;;21.57;100.00;100399.47;1763695;81;21535;-92
2022/08/14 00:10:59;;;;;;;15.68;11.15;;;;;;;21.55;100.00;100398.84;1757791;81;20986;-92
2022/08/14 00:13:32;;;;;;;11.83;10.60;;;;;;;21.53;100.00;100404.34;1746788;82;21895;-92
2022/08/14 00:16:01;;;;;;;15.25;10.72;;;;;;;21.50;100.00;100400.73;1746627;82;21050;-91
2022/08/14 00:18:32;;;;;;;12.63;10.32;;;;;;;21.48;100.00;100397.45;1746535;82;21507;-91
2022/08/14 00:21:03;;;;;;;16.97;11.90;;;;;;;21.48;100.00;100395.33;1746795;82;21050;-91
2022/08/14 00:23:32;;;;;;;14.93;11.48;;;;;;;21.46;100.00;100392.05;1746685;82;20951;-91
2022/08/14 00:26:03;;;;;;;13.20;11.28;;;;;;;21.41;100.00;100390.81;1747024;81;21104;-92
2022/08/14 00:28:33;;;;;;;12.78;11.48;;;;;;;21.39;100.00;100385.39;1746667;81;20987;-92
2022/08/14 00:31:05;;;;;;;12.93;11.53;;;;;;;21.35;100.00;100383.61;1746819;81;21010;-92
2022/08/14 00:33:34;;;;;;;13.25;11.95;;;;;;;21.32;100.00;100384.02;1746789;82;21057;-91
2022/08/14 00:36:04;;;;;;;12.85;11.35;;;;;;;21.28;100.00;100386.23;1746360;82;21054;-91
2022/08/14 00:38:33;;;;;;;14.43;11.48;;;;;;;21.23;100.00;100382.51;1733675;82;21795;-91
2022/08/14 00:41:07;;;;;;;13.28;11.60;;;;;;;21.19;100.00;100378.10;1751904;81;20995;-91
2022/08/14 00:43:36;;;;;;;11.95;10.65;;;;;;;21.16;100.00;100372.37;1731886;82;21062;-91
2022/08/14 00:46:08;;;;;;;13.15;11.53;;;;;;;21.12;100.00;100371.94;1752035;81;21036;-91
2022/08/14 00:48:37;;;;;;;12.10;10.90;;;;;;;21.09;100.00;100373.14;1751991;81;21574;-90
2022/08/14 00:51:07;;;;;;;15.40;12.63;;;;;;;21.07;100.00;100371.19;1752261;81;21136;-92
2022/08/14 00:53:38;;;;;;;13.10;11.80;;;;;;;21.05;100.00;100373.71;1752204;81;21105;-95
2022/08/14 00:56:09;;;;;;;14.15;11.88;;;;;;;21.03;100.00;100374.40;1751974;81;21112;-92
2022/08/14 00:58:36;;;;;;;12.95;11.75;;;;;;;21.01;100.00;100377.24;1752264;81;21057;-92
2022/08/14 01:01:09;;;;;;;13.03;11.35;;;;;;;20.98;100.00;100380.26;1752188;81;21479;-92
2022/08/14 01:03:39;;;;;;;16.90;11.55;;;;;;;20.96;100.00;100374.33;1746132;81;21766;-92
2022/08/14 01:06:15;;;;;;;14.55;11.78;;;;;;;20.95;100.00;100371.39;1739952;82;21014;-93
2022/08/14 01:08:44;;;;;;;14.07;10.93;;;;;;;20.94;100.00;100375.84;1739815;82;21077;-93
2022/08/14 01:11:14;;;;;;;12.85;11.55;;;;;;;20.92;100.00;100371.24;1739918;81;21039;-93
2022/08/14 01:13:45;;;;;;;13.45;10.43;;;;;;;20.93;100.00;100368.11;1740157;82;20999;-92
2022/08/14 01:16:16;;;;;;;13.83;11.33;;;;;;;20.93;100.00;100369.44;1740296;82;21171;-92
2022/08/14 01:21:38;;;;;;;12.45;10.65;;;;;;;20.96;100.00;100365.06;1740018;81;21019;-92
2022/08/14 01:24:07;;;;;;;13.58;11.33;;;;;;;20.97;100.00;100372.00;1746244;81;21580;-92
2022/08/14 01:26:36;;;;;;;12.73;11.10;;;;;;;20.98;100.00;100367.02;1752072;81;21685;-92
2022/08/14 01:29:07;;;;;;;13.50;10.65;;;;;;;20.99;100.00;100367.34;1752305;81;21122;-92
2022/08/14 01:31:59;;;;;;;;;;;;;;;21.02;100.00;100364.81;1754823;81;21007;-92
2022/08/14 01:34:13;;;;;;;12.50;10.78;;;;;;;21.01;100.00;100367.98;1743927;81;20157;-92
2022/08/14 01:36:40;;;;;;;12.10;10.65;;;;;;;21.01;100.00;100365.33;1752051;81;21036;-92
2022/08/14 01:39:16;;;;;;;12.23;10.40;;;;;;;21.01;100.00;100364.02;1752049;81;21607;-92
2022/08/14 01:41:54;;;;;;;13.45;10.32;;;;;;;21.03;100.00;100359.84;1752146;81;21160;-92
2022/08/14 01:44:21;;;;;;;14.18;10.98;;;;;;;21.06;100.00;100362.12;1748718;81;21363;-92
2022/08/14 01:46:53;;;;;;;11.85;10.72;;;;;;;21.08;100.00;100356.11;1752099;81;21101;-92
2022/08/14 01:49:18;;;;;;;12.55;11.35;;;;;;;21.10;100.00;100350.96;1741015;81;22158;-93
2022/08/14 01:51:47;;;;;;;14.63;11.48;;;;;;;21.14;100.00;100351.88;1722049;83;21084;-92
2022/08/14 01:54:20;;;;;;;13.90;10.98;;;;;;;21.15;100.00;100349.06;1722263;83;21302;-92
2022/08/14 01:56:54;;;;;;;14.65;11.95;;;;;;;21.17;100.00;100350.99;1718554;83;21089;-92
2022/08/14 01:59:32;;;;;;;11.97;10.98;;;;;;;21.17;100.00;100350.19;1721508;83;21002;-93
2022/08/14 02:02:11;;;;;;;11.90;10.78;;;;;;;21.19;100.00;100352.15;1722066;83;21014;-92
2022/08/14 02:04:36;;;;;;;12.35;11.10;;;;;;;21.21;100.00;100351.42;1721538;83;21061;-92
2022/08/14 06:55:41;;;;;;;11.88;6.90;;;;;;;26.92;84.38;100350.88;1623036;86;21053;-89
2022/08/14 06:58:15;;;;;;;8.83;6.92;;;;;;;27.03;84.59;100358.64;1626222;87;21128;-89
2022/08/14 07:06:19;;;;;;;11.28;6.78;;;;;;;27.13;81.70;100363.91;1626526;87;21515;-93
2022/08/14 07:08:52;;;;;;;12.75;7.30;;;;;;;27.17;82.52;100365.88;1625971;87;21136;-92
2022/08/14 07:11:21;;;;;;;13.30;6.87;;;;;;;27.25;84.50;100364.73;1626084;87;21022;-91
2022/08/14 07:13:49;;;;;;;11.53;7.50;;;;;;;27.34;83.68;100364.68;1626266;88;21583;-90
2022/08/14 07:16:17;;;;;;;13.32;7.85;;;;;;;27.45;80.17;100364.41;1626668;88;21568;-91
2022/08/14 07:18:48;;;;;;;15.83;6.97;;;;;;;27.53;80.33;100361.38;1637628;86;21034;-93
2022/08/14 07:21:15;;;;;;;9.70;6.97;;;;;;;27.62;79.07;100369.05;1632661;86;21134;-90
2022/08/14 07:23:43;;;;;;;12.82;7.65;;;;;;;27.69;76.64;100375.08;1615659;87;21081;-91
2022/08/14 07:26:13;;;;;;;8.10;6.58;;;;;;;27.77;76.72;100373.38;1644550;85;21120;-91
2022/08/14 07:28:42;;;;;;;9.30;8.30;;;;;;;27.88;78.77;100370.91;1616208;86;21061;-93
2022/08/14 07:31:12;;;;;;;9.38;7.12;;;;;;;27.99;78.36;100375.41;1629279;86;21051;-90
2022/08/14 07:33:47;;;;;;;8.20;7.30;;;;;;;28.06;78.33;100375.28;1612715;88;21177;-91
2022/08/14 07:36:17;;;;;;;10.38;6.80;;;;;;;28.12;74.68;100377.83;1615120;86;21038;-91
2022/08/14 07:38:45;;;;;;;12.43;6.70;;;;;;;28.16;75.07;100383.00;1624078;86;21160;-92
2022/08/14 07:41:15;;;;;;;11.43;7.10;;;;;;;28.21;75.30;100382.29;1645529;85;21066;-91
2022/08/14 07:43:43;;;;;;;17.75;7.90;;;;;;;28.24;73.51;100379.14;1643315;86;21577;-91
2022/08/14 07:46:13;;;;;;;9.38;6.95;;;;;;;28.30;72.61;100374.68;1606907;86;21183;-91
2022/08/14 07:48:42;;;;;;;11.38;6.65;;;;;;;28.33;75.82;100371.00;1633943;86;21096;-92
2022/08/14 07:51:11;;;;;;;10.38;6.40;;;;;;;28.33;75.17;100375.01;1638807;86;21066;-94
2022/08/14 07:53:41;;;;;;;16.60;7.15;;;;;;;28.34;74.66;100374.50;1638763;86;21015;-91
2022/08/14 07:56:11;;;;;;;11.05;6.58;;;;;;;28.31;69.98;100372.30;1633308;86;21148;-90
2022/08/14 07:58:41;;;;;;;15.32;7.00;;;;;;;28.27;68.14;100379.19;1640194;85;21303;-91
2022/08/14 08:01:10;;;;;;;10.82;6.47;;;;;;;28.26;66.86;100377.02;1644390;85;21051;-93
2022/08/14 08:03:42;;;;;;;14.93;7.30;;;;;;;28.24;70.49;100372.45;1655820;85;21152;-90
2022/08/14 08:06:09;;;;;;;;;;;;;;;28.25;69.62;100372.72;1653131;85;21073;-92
2022/08/14 08:08:43;;;;;;;14.85;7.37;;;;;;;28.28;71.37;100370.91;1640280;84;20218;-91
2022/08/14 08:11:12;;;;;;;16.80;9.28;;;;;;;28.34;69.88;100376.64;1617590;86;21143;-91
2022/08/14 08:13:42;;;;;;;13.15;8.58;;;;;;;28.42;67.28;100367.93;1638928;86;21525;-90
2022/08/14 08:16:10;;;;;;;11.48;7.60;;;;;;;28.48;67.48;100366.45;1639215;86;21584;-90
2022/08/14 08:18:38;;;;;;;18.75;7.05;;;;;;;28.59;69.66;100366.64;1639885;86;21379;-91
2022/08/14 08:21:07;;;;;;;14.05;7.03;;;;;;;28.65;69.25;100369.68;1639970;85;21061;-93
2022/08/14 08:23:34;;;;;;;11.00;7.47;;;;;;;28.65;68.84;100365.13;1636785;86;21689;-93
2022/08/14 08:26:01;;;;;;;13.95;7.53;;;;;;;28.64;67.72;100368.05;1636758;86;21114;-91
2022/08/14 08:28:30;;;;;;;11.78;7.83;;;;;;;28.60;68.69;100363.71;1638830;86;21069;-92
2022/08/14 08:31:01;;;;;;;12.78;7.58;;;;;;;28.56;68.41;100364.43;1617487;87;21578;-92
2022/08/14 08:33:34;;;;;;;20.08;7.90;;;;;;;28.51;70.91;100362.48;1616303;86;21121;-94
2022/08/14 08:36:10;;;;;;;12.37;7.28;;;;;;;28.51;72.93;100369.17;1642295;86;21819;-93
2022/08/14 08:38:37;;;;;;;13.05;7.87;;;;;;;28.50;70.48;100363.52;1642818;85;21055;-93
2022/08/14 08:41:05;;;;;;;13.25;8.35;;;;;;;28.53;74.04;100359.55;1667837;84;21544;-91
2022/08/14 08:43:34;;;;;;;9.20;7.95;;;;;;;28.56;72.10;100360.41;1664627;85;21085;-91
2022/08/14 08:46:18;;;;;;;9.00;7.30;;;;;;;28.60;69.97;100355.67;1625383;86;21109;-93
2022/08/14 08:48:53;;;;;;;12.40;7.97;;;;;;;28.61;70.68;100359.15;1632274;85;21197;-91
2022/08/14 08:51:27;;;;;;;12.47;8.10;;;;;;;28.56;69.77;100357.73;1633059;85;21068;-92
2022/08/14 08:54:11;;;;;;;8.88;6.92;;;;;;;28.55;70.10;100350.75;1623140;86;21088;-92
2022/08/14 08:56:44;;;;;;;12.70;7.25;;;;;;;28.58;71.49;100352.42;1629875;85;21627;-92
2022/08/14 08:59:29;;;;;;;13.18;7.25;;;;;;;28.63;69.98;100352.52;1622236;86;21042;-92
2022/08/14 09:02:08;;;;;;;9.18;7.20;;;;;;;28.70;71.74;100341.66;1622299;87;21159;-92
2022/08/14 09:04:46;;;;;;;9.78;7.92;;;;;;;28.85;71.22;100341.11;1622167;86;21065;-92
2022/08/14 09:07:13;;;;;;;8.60;7.20;;;;;;;29.07;71.68;100339.84;1631892;87;21090;-90
2022/08/14 09:09:50;;;;;;;13.28;7.65;;;;;;;29.26;68.07;100336.35;1638018;86;21026;-91
2022/08/14 09:12:20;;;;;;;11.48;7.85;;;;;;;29.38;68.45;100338.13;1634756;85;21061;-93
2022/08/14 09:14:51;;;;;;;15.00;7.65;;;;;;;29.48;68.07;100330.22;1639799;85;21316;-91
2022/08/14 09:17:18;;;;;;;11.12;8.05;;;;;;;29.57;66.34;100336.78;1636100;86;21064;-90
2022/08/14 09:19:49;;;;;;;15.60;7.70;;;;;;;29.62;63.86;100325.31;1613493;88;21094;-91
2022/08/14 09:22:16;;;;;;;11.05;7.53;;;;;;;29.65;65.11;100318.63;1627032;87;21554;-92
2022/08/14 09:24:46;;;;;;;13.62;8.20;;;;;;;29.73;62.77;100324.89;1627205;87;21111;-92
2022/08/14 09:27:15;;;;;;;15.00;8.43;;;;;;;29.81;64.20;100323.62;1627427;86;21848;-92
2022/08/14 09:29:42;;;;;;;13.22;7.03;;;;;;;29.90;67.56;100316.24;1627243;87;21112;-92
2022/08/14 09:32:14;;;;;;;14.80;7.92;;;;;;;30.02;66.08;100321.50;1627741;88;21160;-92
2022/08/14 09:35:16;;;;;;;10.08;6.92;;;;;;;30.12;66.28;100311.38;1619255;88;21081;-92
2022/08/14 09:38:06;;;;;;;11.45;7.85;;;;;;;30.19;63.80;100315.22;1627334;87;21105;-92
2022/08/14 09:40:48;;;;;;;12.07;7.83;;;;;;;30.22;60.18;100320.06;1622445;87;27063;-92
2022/08/14 09:43:41;;;;;;;13.08;8.60;;;;;;;30.17;60.48;100310.08;1609523;87;21090;-92
2022/08/14 09:46:09;;;;;;;17.60;8.75;;;;;;;30.13;60.03;100315.70;1618937;86;21503;-90
2022/08/14 09:48:36;;;;;;;14.18;8.25;;;;;;;30.09;60.89;100311.87;1610127;86;21108;-92
2022/08/14 09:51:06;;;;;;;14.85;8.40;;;;;;;30.02;62.31;100301.88;1611898;86;21121;-92
2022/08/14 09:53:43;;;;;;;12.97;8.73;;;;;;;29.98;63.32;100305.60;1608606;88;21864;-91
2022/08/14 09:56:10;;;;;;;16.20;9.25;;;;;;;29.98;64.98;100312.86;1604647;86;21045;-93
2022/08/14 09:58:45;;;;;;;17.85;8.73;;;;;;;29.99;60.67;100307.23;1610984;86;21121;-90
2022/08/14 10:01:15;;;;;;;15.55;7.95;;;;;;;30.01;59.34;100305.63;1626644;86;21959;-90
2022/08/14 10:03:54;;;;;;;11.65;8.15;;;;;;;30.00;59.23;100306.71;1604436;86;21079;-92
2022/08/14 10:06:24;;;;;;;13.03;8.38;;;;;;;30.02;58.74;100301.88;1623953;87;21346;-90
2022/08/14 10:09:03;;;;;;;12.53;8.00;;;;;;;30.08;58.24;100300.06;1624756;86;21051;-92
2022/08/14 10:11:36;;;;;;;13.20;8.13;;;;;;;30.17;59.36;100299.34;1609310;86;21147;-93
2022/08/14 10:14:19;;;;;;;13.78;8.15;;;;;;;30.35;59.22;100296.02;1614864;87;21072;-95
2022/08/14 10:16:53;;;;;;;10.68;7.50;;;;;;;30.52;59.24;100294.05;1615564;88;21076;-95
2022/08/14 10:19:31;;;;;;;10.68;7.92;;;;;;;30.76;58.05;100304.43;1614499;86;21159;-93
2022/08/14 10:22:09;;;;;;;16.07;8.48;;;;;;;30.92;55.75;100297.81;1628122;86;21081;-92
2022/08/14 10:24:45;;;;;;;10.95;7.40;;;;;;;31.02;58.03;100297.05;1613255;87;21087;-93
2022/08/14 10:27:22;;;;;;;13.00;7.58;;;;;;;31.14;55.91;100287.75;1595608;87;21564;-93
2022/08/14 10:29:55;;;;;;;11.28;7.20;;;;;;;31.23;55.89;100284.05;1588761;88;21527;-92
2022/08/14 10:32:24;;;;;;;9.03;6.65;;;;;;;31.28;55.83;100289.44;1597002;87;21170;-93
2022/08/14 10:34:55;;;;;;;11.88;7.20;;;;;;;31.25;54.55;100278.39;1606537;88;21069;-94
2022/08/14 10:37:22;;;;;;;12.45;6.80;;;;;;;31.17;55.92;100281.03;1607648;86;21096;-93
2022/08/14 10:40:03;;;;;;;15.63;7.60;;;;;;;31.18;57.72;100287.23;1605660;88;21504;-94
2022/08/14 10:42:39;;;;;;;;;;;;;;;31.24;58.05;100291.05;1630360;86;21098;-92
2022/08/14 10:45:21;;;;;;;13.05;7.28;;;;;;;31.37;60.05;100283.55;1633703;86;21234;-92
2022/08/14 10:47:51;;;;;;;16.87;7.03;;;;;;;31.54;57.55;100283.34;1628331;86;21468;-94
2022/08/14 10:50:35;;;;;;;11.40;7.33;;;;;;;31.73;56.82;100279.13;1628333;86;21134;-93
2022/08/14 10:53:04;;;;;;;20.70;7.45;;;;;;;31.82;52.41;100279.96;1623235;86;21076;-93
2022/08/14 10:55:38;;;;;;;18.57;7.08;;;;;;;31.84;52.03;100288.59;1623573;86;21121;-94
2022/08/14 10:58:11;;;;;;;17.82;6.70;;;;;;;32.01;55.66;100273.53;1617421;87;21160;-92
2022/08/14 11:03:16;;;;;;;9.25;6.30;;;;;;;32.08;54.18;100287.53;1611349;88;21615;-94
2022/08/14 11:05:48;;;;;;;13.95;6.97;;;;;;;32.02;54.07;100285.37;1607713;88;21100;-94
2022/08/14 11:08:21;;;;;;;11.12;6.75;;;;;;;31.97;55.18;100286.72;1610260;87;21144;-93
2022/08/14 11:10:59;;;;;;;9.05;6.95;;;;;;;32.01;55.23;100286.44;1605621;88;21192;-93
2022/08/14 11:13:28;;;;;;;19.27;7.03;;;;;;;32.17;56.65;100290.52;1617782;87;21082;-94
2022/08/14 11:16:00;;;;;;;9.48;6.08;;;;;;;32.29;50.72;100281.66;1618338;88;21729;-94
2022/08/14 11:18:32;;;;;;;17.42;6.50;;;;;;;32.32;53.50;100281.13;1624864;86;21112;-95
2022/08/14 11:21:00;;;;;;;11.68;7.33;;;;;;;32.31;51.54;100276.81;1653435;85;22003;-96
2022/08/14 11:23:35;;;;;;;8.08;6.78;;;;;;;32.28;50.65;100278.69;1656203;85;21147;-90
2022/08/14 11:26:04;;;;;;;14.15;7.05;;;;;;;32.18;50.31;100266.53;1665474;84;21576;-96
2022/08/14 11:28:38;;;;;;;11.40;6.83;;;;;;;32.12;49.90;100280.55;1621861;86;21118;-92
2022/08/14 11:31:12;;;;;;;14.10;7.08;;;;;;;31.98;50.37;100273.53;1647548;85;21320;-95
2022/08/14 11:33:42;;;;;;;9.78;6.50;;;;;;;31.98;50.37;100273.53;1639578;86;21029;-92
2022/08/14 11:36:15;;;;;;;9.17;6.17;;;;;;;31.91;48.51;100279.72;1629069;87;21165;-95
2022/08/14 11:38:46;;;;;;;11.68;6.08;;;;;;;31.80;47.24;100264.61;1624926;87;20974;-96
2022/08/14 11:41:17;;;;;;;13.05;7.90;;;;;;;31.77;49.95;100270.78;1653255;85;21620;-96
2022/08/14 11:43:47;;;;;;;11.83;6.40;;;;;;;31.87;51.16;100261.12;1633048;87;21076;-92
2022/08/14 11:46:15;;;;;;;9.80;6.75;;;;;;;32.05;49.91;100252.53;1632881;86;21056;-93
2022/08/14 11:48:52;;;;;;;9.40;6.37;;;;;;;32.16;49.68;100253.90;1632963;86;21159;-93
2022/08/14 11:51:26;;;;;;;12.45;6.58;;;;;;;32.20;48.12;100261.69;1654420;86;21034;-94
2022/08/14 11:54:02;;;;;;;15.93;7.90;;;;;;;32.19;47.51;100247.95;1640339;86;21081;-95
2022/08/14 11:56:41;;;;;;;9.08;6.28;;;;;;;32.05;47.10;100245.02;1603594;87;21509;-94
2022/08/14 11:59:16;;;;;;;10.18;6.75;;;;;;;32.05;47.10;100245.02;1658084;84;21087;-93
2022/08/14 12:01:46;;;;;;;10.45;6.53;;;;;;;31.91;45.89;100247.41;1645895;87;21871;-92
2022/08/14 12:04:20;;;;;;;8.05;6.17;;;;;;;31.77;46.83;100249.26;1647780;86;21130;-94
2022/08/14 12:06:51;;;;;;;11.35;6.22;;;;;;;31.65;47.20;100243.30;1652147;85;21029;-94
2022/08/14 12:09:37;;;;;;;10.15;6.15;;;;;;;31.54;47.69;100238.43;1649632;86;21050;-92
2022/08/14 12:12:23;;;;;;;9.38;6.70;;;;;;;31.45;48.75;100235.42;1621317;87;20985;-94
2022/08/14 12:14:58;;;;;;;8.93;6.00;;;;;;;31.42;50.28;100243.22;1627841;86;21231;-92
2022/08/14 12:17:32;;;;;;;9.93;6.12;;;;;;;31.38;49.49;100237.56;1603126;88;21128;-96
2022/08/14 12:20:06;;;;;;;12.25;6.50;;;;;;;31.36;47.50;100238.91;1603280;88;21061;-94
2022/08/14 12:22:43;;;;;;;11.75;6.30;;;;;;;31.32;48.71;100234.59;1632698;86;21708;-93
2022/08/14 12:25:20;;;;;;;10.38;6.15;;;;;;;31.30;48.59;100227.31;1639862;85;21034;-94
2022/08/14 12:27:52;;;;;;;12.00;6.00;;;;;;;31.29;48.89;100229.20;1603095;87;21171;-94
2022/08/14 12:30:41;;;;;;;10.82;6.67;;;;;;;31.31;49.52;100224.90;1623221;85;21084;-92
2022/08/14 12:33:31;;;;;;;11.95;6.15;;;;;;;31.34;48.73;100225.73;1646096;86;21531;-92
2022/08/14 12:36:05;;;;;;;9.68;6.10;;;;;;;31.38;49.12;100220.08;1641788;85;21057;-93
2022/08/14 12:38:44;;;;;;;13.35;6.58;;;;;;;31.43;48.96;100224.14;1640974;85;21029;-93
2022/08/14 12:41:17;;;;;;;11.53;6.28;;;;;;;31.47;49.14;100224.42;1631260;86;21295;-93
2022/08/14 12:44:00;;;;;;;10.60;6.55;;;;;;;31.52;48.60;100223.08;1630516;85;21049;-94
2022/08/14 12:46:33;;;;;;;9.78;6.50;;;;;;;31.63;49.64;100214.49;1635389;86;21509;-95
2022/08/14 12:49:05;;;;;;;12.37;6.92;;;;;;;31.72;49.44;100221.00;1627609;86;21082;-94
2022/08/14 12:51:37;;;;;;;7.33;6.00;;;;;;;31.80;49.58;100211.61;1620040;86;21075;-95
2022/08/14 12:54:17;;;;;;;9.75;6.50;;;;;;;31.87;49.46;100213.50;1621463;85;26994;-94
2022/08/14 12:56:46;;;;;;;10.80;6.72;;;;;;;31.97;49.85;100220.77;1636625;85;21032;-94
2022/08/14 12:59:15;;;;;;;8.88;6.20;;;;;;;32.05;49.14;100218.88;1631809;86;21093;-91
2022/08/14 13:01:46;;;;;;;11.88;7.05;;;;;;;32.12;48.77;100219.97;1640496;84;21047;-95
2022/08/14 13:04:16;;;;;;;9.25;6.72;;;;;;;32.14;47.65;100219.69;1657069;83;21512;-93
2022/08/14 13:06:47;;;;;;;11.40;6.90;;;;;;;32.07;46.13;100210.01;1628239;86;21190;-96
2022/08/14 13:09:18;;;;;;;10.70;7.17;;;;;;;32.00;45.18;100207.30;1630885;86;21614;-93
2022/08/14 13:11:52;;;;;;;12.65;7.30;;;;;;;31.94;46.28;100211.86;1657045;84;21566;-96
2022/08/14 13:14:24;;;;;;;10.35;7.60;;;;;;;31.87;47.25;100205.94;1635259;86;20997;-95
2022/08/14 13:16:56;;;;;;;10.55;7.28;;;;;;;31.83;47.16;100208.36;1637680;84;21166;-93
2022/08/14 13:19:26;;;;;;;8.15;7.35;;;;;;;31.86;47.63;100208.36;1634403;85;21148;-95
2022/08/14 13:21:59;;;;;;;12.65;8.03;;;;;;;31.94;49.54;100204.62;1634098;86;21107;-96
2022/08/14 13:24:26;;;;;;;12.88;8.75;;;;;;;32.25;47.36;100219.97;1635792;86;21122;-96
2022/08/14 13:26:57;;;;;;;12.85;8.83;;;;;;;32.25;47.36;100219.97;1619215;87;21540;-95
2022/08/14 13:29:28;;;;;;;;;;;;;;;32.32;46.08;100202.20;1636079;86;21103;-96
2022/08/14 13:32:03;;;;;;;14.18;8.43;;;;;;;32.33;46.67;100203.81;1629835;86;21175;-94
2022/08/14 13:34:28;;;;;;;10.75;7.60;;;;;;;32.36;46.91;100227.53;1637245;85;21099;-92
2022/08/14 13:36:56;;;;;;;13.10;8.28;;;;;;;32.34;45.53;100200.05;1634139;86;21014;-93
2022/08/14 13:39:25;;;;;;;11.40;8.28;;;;;;;32.32;45.61;100199.50;1625468;86;21125;-95
2022/08/14 13:41:52;;;;;;;9.55;7.97;;;;;;;32.27;45.06;100211.64;1626850;86;21117;-94
2022/08/14 13:44:26;;;;;;;14.87;8.28;;;;;;;32.18;45.06;100203.25;1629207;85;21134;-96
2022/08/14 13:46:53;;;;;;;10.95;8.53;;;;;;;32.09;45.62;100205.14;1629971;86;21084;-93
2022/08/14 13:49:20;;;;;;;23.45;8.63;;;;;;;31.94;45.99;100195.20;1631184;86;21594;-91
2022/08/14 13:51:50;;;;;;;13.55;7.53;;;;;;;31.80;46.83;100208.92;1627964;85;21051;-94
2022/08/14 13:54:21;;;;;;;15.45;7.65;;;;;;;31.62;47.32;100204.80;1634464;85;21084;-92
2022/08/14 13:56:48;;;;;;;11.48;7.67;;;;;;;31.49;46.88;100205.32;1606709;86;22054;-93
2022/08/14 13:59:16;;;;;;;16.42;8.33;;;;;;;31.43;47.42;100203.98;1641510;85;21034;-93
2022/08/14 14:01:44;;;;;;;14.65;8.08;;;;;;;31.49;48.84;100207.46;1633260;86;21076;-95
2022/08/14 14:04:17;;;;;;;13.13;8.78;;;;;;;31.49;48.84;100207.46;1634852;86;21629;-93
2022/08/14 14:06:50;;;;;;;13.48;8.58;;;;;;;31.50;47.94;100195.63;1637412;85;21106;-93
2022/08/14 14:09:27;;;;;;;14.65;8.95;;;;;;;31.50;48.47;100197.52;1632419;85;21148;-93
2022/08/14 14:11:57;;;;;;;14.18;9.50;;;;;;;31.45;47.86;100195.63;1623865;86;21097;-95
2022/08/14 14:14:26;;;;;;;10.53;8.50;;;;;;;31.40;47.39;100201.01;1636875;86;21122;-94
2022/08/14 14:16:54;;;;;;;13.08;8.35;;;;;;;31.31;46.35;100196.14;1635513;86;21109;-95
2022/08/14 14:19:24;;;;;;;12.13;8.00;;;;;;;31.22;46.76;100198.23;1639487;86;21414;-93
2022/08/14 14:21:50;;;;;;;9.55;7.28;;;;;;;31.13;47.73;100193.37;1635490;86;21256;-92
2022/08/14 14:24:24;;;;;;;12.10;7.45;;;;;;;31.08;47.18;100193.33;1643559;86;21950;-94
2022/08/14 14:26:52;;;;;;;11.70;7.53;;;;;;;31.06;47.29;100188.75;1637276;86;21114;-93
2022/08/14 14:29:19;;;;;;;12.13;7.35;;;;;;;31.05;48.00;100188.47;1633886;86;21138;-93
2022/08/14 14:31:48;;;;;;;14.63;7.67;;;;;;;31.05;48.15;100184.98;1653053;86;21110;-94
2022/08/14 14:34:17;;;;;;;12.78;7.78;;;;;;;31.05;47.90;100183.64;1637991;86;21154;-96
2022/08/14 14:36:44;;;;;;;9.13;8.23;;;;;;;31.02;48.05;100183.64;1641736;85;21018;-94
2022/08/14 14:39:15;;;;;;;12.40;8.50;;;;;;;31.01;48.03;100180.67;1646019;86;21091;-94
2022/08/14 14:41:44;;;;;;;14.30;8.70;;;;;;;31.02;48.34;100183.64;1645574;85;21108;-93
2022/08/14 14:44:13;;;;;;;11.20;9.35;;;;;;;31.00;48.45;100181.22;1629974;86;21136;-93
2022/08/14 14:46:49;;;;;;;14.28;8.80;;;;;;;31.00;49.52;100179.05;1627069;86;21752;-95
2022/08/14 14:49:19;;;;;;;12.68;8.98;;;;;;;31.00;49.08;100175.02;1631613;85;21085;-94
2022/08/14 14:51:47;;;;;;;18.32;8.95;;;;;;;31.02;49.65;100178.78;1623781;86;21965;-95
2022/08/14 14:54:17;;;;;;;12.25;7.78;;;;;;;31.00;49.75;100181.73;1623686;86;21077;-93
2022/08/14 14:56:45;;;;;;;15.08;8.93;;;;;;;30.95;49.66;100179.04;1627804;86;21044;-92
2022/08/14 14:59:14;;;;;;;13.03;8.83;;;;;;;30.86;49.63;100172.55;1627021;86;21223;-96
2022/08/14 15:01:48;;;;;;;11.93;8.73;;;;;;;30.79;49.94;100173.59;1627914;86;21133;-92
2022/08/14 15:04:16;;;;;;;14.25;8.75;;;;;;;30.69;48.39;100166.27;1643493;85;21057;-94
2022/08/14 15:06:44;;;;;;;13.32;8.95;;;;;;;30.64;49.16;100161.44;1624963;86;21145;-93
2022/08/14 15:09:11;;;;;;;14.95;9.35;;;;;;;30.59;49.87;100161.39;1628425;86;21096;-96
2022/08/14 15:11:39;;;;;;;10.25;8.60;;;;;;;30.51;48.27;100168.87;1626836;86;21464;-92
2022/08/14 15:14:06;;;;;;;15.78;9.58;;;;;;;30.46;48.93;100166.65;1631861;86;22171;-93
2022/08/14 15:16:33;;;;;;;10.70;8.83;;;;;;;30.41;48.70;100169.31;1629538;86;21468;-93
2022/08/14 15:19:01;;;;;;;11.33;8.45;;;;;;;30.35;48.86;100169.30;1628569;86;21521;-95
2022/08/14 15:21:28;;;;;;;15.53;9.08;;;;;;;30.31;48.60;100178.91;1629765;85;21551;-94
2022/08/14 15:23:57;;;;;;;11.03;9.05;;;;;;;30.26;48.60;100176.20;1631235;86;21240;-93
2022/08/14 15:26:25;;;;;;;18.80;9.45;;;;;;;30.23;47.46;100178.59;1631779;86;21118;-96
2022/08/14 15:28:53;;;;;;;19.87;9.05;;;;;;;30.20;47.82;100178.03;1610918;87;21140;-96
2022/08/14 15:31:20;;;;;;;13.72;9.03;;;;;;;30.18;48.07;100173.45;1568303;88;21103;-96
2022/08/14 15:34:11;;;;;;;12.82;9.25;;;;;;;30.14;47.66;100175.56;1572659;88;21086;-93
2022/08/14 15:36:47;;;;;;;14.68;9.75;;;;;;;30.10;46.95;100175.81;1606949;87;21176;-93
2022/08/14 15:39:12;;;;;;;13.53;9.10;;;;;;;30.06;46.56;100179.00;1600656;86;21133;-93
2022/08/14 15:41:40;;;;;;;12.98;8.10;;;;;;;30.03;46.98;100176.02;1609405;86;21117;-95
2022/08/14 15:44:11;;;;;;;14.47;9.10;;;;;;;29.99;47.51;100181.09;1569192;89;21126;-94
2022/08/14 15:46:37;;;;;;;19.05;8.40;;;;;;;29.96;47.33;100184.81;1594022;87;21098;-93
2022/08/14 15:49:06;;;;;;;12.13;7.67;;;;;;;29.89;47.47;100183.13;1572024;89;21801;-93
2022/08/14 15:51:34;;;;;;;13.10;8.30;;;;;;;29.83;47.81;100185.50;1591989;88;21104;-92
2022/08/14 15:54:01;;;;;;;15.50;8.88;;;;;;;29.77;48.07;100177.10;1586859;88;21117;-92
2022/08/14 15:56:29;;;;;;;12.60;8.83;;;;;;;29.71;47.89;100180.80;1592280;87;21613;-92
2022/08/14 15:58:57;;;;;;;11.53;9.08;;;;;;;29.65;47.35;100184.52;1630225;86;21170;-93
2022/08/14 16:01:27;;;;;;;13.65;8.75;;;;;;;29.61;46.67;100186.06;1623342;86;21250;-94
2022/08/14 16:03:56;;;;;;;12.25;8.90;;;;;;;29.58;47.04;100188.72;1657699;83;21026;-94
2022/08/14 16:06:30;;;;;;;13.58;9.50;;;;;;;29.55;46.92;100191.39;1619281;87;21358;-92
2022/08/14 16:08:58;;;;;;;10.55;9.45;;;;;;;29.50;46.86;100195.88;1658825;85;21039;-92
2022/08/14 16:11:26;;;;;;;15.60;9.58;;;;;;;29.45;46.79;100196.63;1639891;86;21027;-95
2022/08/14 16:13:55;;;;;;;12.55;10.08;;;;;;;29.40;46.95;100196.59;1631269;86;21148;-93
2022/08/14 16:16:25;;;;;;;14.60;9.80;;;;;;;29.35;46.92;100197.34;1626245;88;21759;-95
2022/08/14 16:18:57;;;;;;;15.45;9.90;;;;;;;29.28;47.16;100205.53;1637905;86;21820;-90
2022/08/14 16:21:31;;;;;;;10.88;8.78;;;;;;;29.21;47.20;100200.09;1654591;84;21067;-95
2022/08/14 16:23:59;;;;;;;9.80;8.43;;;;;;;29.14;47.03;100202.16;1631898;87;21092;-92
2022/08/14 16:26:27;;;;;;;11.08;8.53;;;;;;;29.09;46.89;100205.58;1626251;87;22005;-93
2022/08/14 16:29:06;;;;;;;12.28;8.90;;;;;;;29.06;46.94;100212.77;1632944;86;21128;-92
2022/08/14 16:31:35;;;;;;;12.37;8.90;;;;;;;29.01;46.93;100209.49;1656752;84;21531;-94
2022/08/14 16:34:05;;;;;;;11.65;8.35;;;;;;;28.98;46.98;100210.52;1650226;85;21587;-93
2022/08/14 16:36:36;;;;;;;12.50;8.95;;;;;;;28.93;47.02;100210.75;1651285;86;26596;-92